»·PEaware :: UAL1399 KMFR-KPDX

UAL1399 :: KMFR-KPDX

FLIGHT INFORMATION

Flight Status: Arrived
Operator:
United Airlines
More flights by this operator :: More flights under this callsign
Pilot: David C. (16084)
Aircraft: AIRBUS A320
(A320)
More flights by this aircraft type
Origin: KMFR Rogue Valley Intl-Medford
United States
Destination: KPDX Portland Intl
United States
More flights between these airports :: More routes between these airports
Route: BRUTE7 MOURN MOXEE TMBRS2
File this flight plan on PilotEdge
Remarks:
Altitude:
(Current/Filed)
29,000ft
Speed:
(Current/Filed)
479kts
Departed: 18-Jun-18 04:49 PM
Arrived: 18-Jun-18 05:36 PM
Distance/Time
Traveled:
193nm/0:47
Distance/Time
To Go:
Arrived

Flight Plot

Page will automatically refresh every two minutes.

Flight plan parsing failed; only flown route is shown


Map Options




Map Legend


Flown Route
Filed Route
Departure Airport
Arrival Airport
Navaid (VOR, NDB)
Fix

Horizontal Profiles

Position Reports

Time Latitude Longitude Heading Altitude Ground
Speed
18-Jun-18 16:20 42.369726 -122.873870 247 1342ft 0kts
18-Jun-18 16:21 42.369726 -122.873870 247 1342ft 0kts
18-Jun-18 16:22 42.369726 -122.873870 247 1342ft 0kts
18-Jun-18 16:23 42.369726 -122.873870 247 1342ft 0kts
18-Jun-18 16:24 42.369726 -122.873870 247 1342ft 0kts
18-Jun-18 16:25 42.369726 -122.873870 247 1342ft 0kts
18-Jun-18 16:26 42.369726 -122.873870 247 1342ft 0kts
18-Jun-18 16:27 42.369726 -122.873870 247 1342ft 0kts
18-Jun-18 16:28 42.369726 -122.873870 247 1342ft 0kts
18-Jun-18 16:29 42.369726 -122.873870 247 1342ft 0kts
18-Jun-18 16:30 42.369726 -122.873870 247 1342ft 0kts
18-Jun-18 16:31 42.369726 -122.873870 247 1342ft 0kts
18-Jun-18 16:32 42.369726 -122.873870 247 1342ft 0kts
18-Jun-18 16:33 42.369743 -122.873813 247 1342ft 2kts
18-Jun-18 16:34 42.370059 -122.873247 202 1342ft 2kts
18-Jun-18 16:35 42.370520 -122.873294 151 1342ft 0kts
18-Jun-18 16:36 42.370519 -122.873294 151 1342ft 0kts
18-Jun-18 16:37 42.370519 -122.873294 151 1342ft 0kts
18-Jun-18 16:38 42.370519 -122.873294 151 1342ft 0kts
18-Jun-18 16:39 42.370519 -122.873294 151 1342ft 0kts
18-Jun-18 16:40 42.370519 -122.873294 151 1342ft 0kts
18-Jun-18 16:41 42.370519 -122.873294 151 1342ft 0kts
18-Jun-18 16:42 42.370519 -122.873294 151 1342ft 0kts
18-Jun-18 16:43 42.370374 -122.873179 146 1342ft 6kts
18-Jun-18 16:44 42.367043 -122.870702 157 1342ft 20kts
18-Jun-18 16:45 42.363779 -122.868937 140 1342ft 0kts
18-Jun-18 16:46 42.363779 -122.868937 140 1342ft 0kts
18-Jun-18 16:47 42.363742 -122.868889 134 1342ft 3kts
18-Jun-18 16:48 42.364602 -122.867866 339 1342ft 0kts
18-Jun-18 16:49 42.379534 -122.875701 338 1400ft 169kts
18-Jun-18 16:50 42.422761 -122.838680 84 3987ft 247kts
18-Jun-18 16:51 42.424961 -122.752869 108 4711ft 321kts
18-Jun-18 16:52 42.409675 -122.641209 75 6976ft 299kts
18-Jun-18 16:53 42.471250 -122.561832 348 10173ft 270kts
18-Jun-18 16:54 42.535013 -122.578968 343 11036ft 305kts
18-Jun-18 16:55 42.604301 -122.618674 328 11944ft 283kts
18-Jun-18 16:56 42.666004 -122.687428 311 15115ft 294kts
18-Jun-18 16:57 42.707474 -122.773448 294 17747ft 305kts
18-Jun-18 16:58 42.728812 -122.886311 276 20316ft 318kts
18-Jun-18 16:59 42.782255 -122.968312 350 22362ft 323kts
18-Jun-18 17:00 42.875806 -122.986034 350 23777ft 352kts
18-Jun-18 17:01 42.974194 -123.004581 353 25433ft 366kts
18-Jun-18 17:02 43.077069 -122.989376 9 26801ft 382kts
18-Jun-18 17:03 43.182494 -122.966602 10 28387ft 390kts
18-Jun-18 17:04 43.291149 -122.942964 9 29121ft 413kts
18-Jun-18 17:05 43.408969 -122.917177 9 29115ft 450kts
18-Jun-18 17:06 43.531505 -122.890369 9 29114ft 463kts
18-Jun-18 17:07 43.656506 -122.862920 9 29121ft 461kts
18-Jun-18 17:08 43.780176 -122.835593 9 29125ft 460kts
18-Jun-18 17:09 43.904759 -122.807941 9 29102ft 461kts
18-Jun-18 17:10 44.029812 -122.780068 9 28192ft 461kts
18-Jun-18 17:11 44.154188 -122.753390 6 25446ft 462kts
18-Jun-18 17:12 44.280932 -122.740494 3 22525ft 456kts
18-Jun-18 17:13 44.403659 -122.728464 3 20804ft 421kts
18-Jun-18 17:14 44.507045 -122.718333 4 20491ft 352kts
18-Jun-18 17:15 44.593501 -122.709593 3 19876ft 326kts
18-Jun-18 17:16 44.680084 -122.700833 3 18354ft 316kts
18-Jun-18 17:17 44.766529 -122.692118 3 16782ft 309kts
18-Jun-18 17:18 44.850413 -122.683664 3 15223ft 301kts
18-Jun-18 17:19 44.932751 -122.675370 3 13981ft 289kts
18-Jun-18 17:20 45.012138 -122.687158 350 12534ft 281kts
18-Jun-18 17:21 45.084371 -122.702568 350 11983ft 244kts
18-Jun-18 17:22 45.146581 -122.715763 350 11465ft 216kts
18-Jun-18 17:23 45.205349 -122.728184 350 10485ft 213kts
18-Jun-18 17:24 45.263702 -122.740485 348 9484ft 214kts
18-Jun-18 17:25 45.322779 -122.753136 354 8518ft 213kts
18-Jun-18 17:26 45.383169 -122.765817 352 6556ft 221kts
18-Jun-18 17:27 45.441565 -122.778301 351 5264ft 203kts
18-Jun-18 17:28 45.494797 -122.789637 351 4679ft 182kts
18-Jun-18 17:29 45.545261 -122.803290 343 4429ft 186kts
18-Jun-18 17:30 45.594494 -122.823368 343 3026ft 184kts
18-Jun-18 17:31 45.640824 -122.816080 39 1938ft 159kts
18-Jun-18 17:32 45.656009 -122.764504 94 1904ft 145kts
18-Jun-18 17:33 45.639744 -122.712001 118 1843ft 146kts
18-Jun-18 17:34 45.621625 -122.664915 118 1152ft 144kts
18-Jun-18 17:35 45.602456 -122.615381 118 390ft 142kts
18-Jun-18 17:36 45.587604 -122.577067 126 38ft 28kts
18-Jun-18 17:37 45.586017 -122.576555 250 38ft 0kts
18-Jun-18 17:38 45.587304 -122.579637 298 38ft 15kts
18-Jun-18 17:39 45.589549 -122.586264 265 38ft 16kts
18-Jun-18 17:40 45.590541 -122.591340 210 38ft 7kts
18-Jun-18 17:41 45.590231 -122.591580 208 38ft 0kts

Navigation Log

Ident Type
Flight plan parsing failed, navigation log unavailable